createdAt,value
2019-04-03T03:16:08.830Z,10.80
2019-04-03T03:18:37.993Z,10.80
2019-04-03T03:21:12.059Z,10.70
2019-04-03T03:23:39.072Z,10.60
2019-04-03T03:26:08.533Z,10.60
2019-04-03T03:28:37.690Z,10.50
2019-04-03T03:31:07.885Z,10.50
2019-04-03T03:33:40.581Z,10.50
2019-04-03T03:36:09.517Z,10.50
2019-04-03T03:38:40.727Z,10.50
2019-04-03T03:41:10.071Z,10.50
2019-04-03T03:43:39.628Z,10.40
2019-04-03T03:46:10.297Z,10.40
2019-04-03T03:48:43.589Z,10.30
2019-04-03T03:51:13.125Z,10.20
2019-04-03T03:53:44.523Z,10.10
2019-04-03T03:56:13.605Z,10.10
2019-04-03T03:58:45.665Z,10.00
2019-04-03T04:01:14.254Z,9.90
2019-04-03T04:03:43.529Z,9.80
2019-04-03T04:06:12.788Z,9.70
2019-04-03T04:08:44.171Z,9.60
2019-04-03T04:11:13.292Z,9.60
2019-04-03T04:13:47.590Z,9.50
2019-04-03T04:16:14.475Z,9.50
2019-04-03T04:18:44.120Z,9.40
2019-04-03T04:21:13.451Z,9.40
2019-04-03T04:23:42.878Z,9.30
2019-04-03T04:26:12.861Z,9.30
2019-04-03T04:28:42.427Z,9.30
2019-04-03T04:31:12.976Z,9.20
2019-04-03T04:33:42.110Z,9.30
2019-04-03T04:36:11.053Z,9.20
2019-04-03T04:38:40.047Z,9.20
2019-04-03T04:41:09.352Z,9.20
2019-04-03T04:43:39.399Z,9.20
2019-04-03T04:46:09.673Z,9.10
2019-04-03T04:48:39.810Z,9.10
2019-04-03T04:51:08.738Z,9.10
2019-04-03T04:53:37.690Z,9.10
2019-04-03T04:56:07.358Z,9.10
2019-04-03T04:58:36.562Z,9.00
2019-04-03T05:01:05.652Z,9.00
2019-04-03T05:03:34.671Z,9.10
2019-04-03T05:06:03.666Z,9.10
2019-04-03T05:08:33.571Z,9.10
2019-04-03T05:11:03.177Z,9.10
2019-04-03T05:13:32.133Z,9.00
2019-04-03T05:16:01.134Z,9.00
2019-04-03T05:18:30.170Z,9.10
2019-04-03T05:20:59.240Z,9.10
2019-04-03T05:23:28.292Z,9.10
2019-04-03T05:25:57.808Z,9.20
2019-04-03T05:28:28.433Z,9.20
2019-04-03T05:30:57.705Z,9.20
2019-04-03T05:33:26.810Z,9.20
2019-04-03T05:35:55.807Z,9.20
2019-04-03T05:38:24.850Z,9.30
2019-04-03T05:40:56.117Z,9.40
2019-04-03T05:43:24.800Z,9.40
2019-04-03T05:45:54.095Z,9.50
2019-04-03T05:48:23.211Z,9.70
2019-04-03T05:50:52.278Z,9.70
2019-04-03T05:53:21.362Z,9.80
2019-04-03T05:55:50.411Z,9.80
2019-04-03T05:58:19.681Z,9.90
2019-04-03T06:00:48.681Z,9.90
2019-04-03T06:03:17.990Z,10.00
2019-04-03T06:05:47.186Z,10.00
2019-04-03T06:08:17.906Z,10.10
2019-04-03T06:10:47.027Z,10.20
2019-04-03T06:13:17.089Z,10.40
2019-04-03T06:15:46.659Z,10.50
2019-04-03T06:18:17.521Z,10.60
2019-04-03T06:20:46.497Z,10.80
2019-04-03T06:23:15.721Z,11.00
2019-04-03T06:25:45.393Z,11.20
2019-04-03T06:28:14.453Z,11.40
2019-04-03T06:30:43.743Z,11.70
2019-04-03T06:33:12.903Z,11.90
2019-04-03T06:35:44.687Z,12.00
2019-04-03T06:38:12.687Z,12.10
2019-04-03T06:40:41.744Z,12.10
2019-04-03T06:43:10.819Z,12.00
2019-04-03T06:45:42.788Z,12.00
2019-04-03T06:48:10.662Z,11.90
2019-04-03T06:50:39.620Z,11.90
2019-04-03T06:53:08.663Z,11.80
2019-04-03T06:55:37.965Z,11.80
2019-04-03T06:58:06.925Z,11.80
2019-04-03T07:00:36.083Z,11.80
2019-04-03T07:03:05.363Z,11.80
2019-04-03T07:05:34.536Z,12.00
2019-04-03T07:08:05.088Z,12.10
2019-04-03T07:10:36.194Z,12.50
2019-04-03T07:13:05.199Z,12.80
2019-04-03T07:15:34.206Z,13.10
2019-04-03T07:18:05.580Z,13.30
2019-04-03T07:20:33.986Z,13.70
2019-04-03T07:23:03.167Z,13.80
2019-04-03T07:25:33.934Z,13.90
2019-04-03T07:28:02.964Z,14.30
2019-04-03T07:30:32.026Z,14.70
2019-04-03T07:33:01.192Z,15.30
2019-04-03T07:35:30.564Z,15.60
2019-04-03T07:37:59.584Z,15.70
2019-04-03T07:40:28.943Z,15.60
2019-04-03T07:42:58.238Z,15.90
2019-04-03T07:45:27.262Z,16.30
2019-04-03T07:47:56.253Z,16.80
2019-04-03T07:50:25.512Z,17.30
2019-04-03T07:52:54.611Z,17.80
2019-04-03T07:55:24.223Z,18.00
2019-04-03T07:57:54.359Z,18.10
2019-04-03T08:00:23.910Z,18.20
2019-04-03T08:02:53.084Z,18.60
2019-04-03T08:05:22.248Z,19.10
2019-04-03T08:07:51.198Z,19.60
2019-04-03T08:10:20.290Z,19.50
2019-04-03T08:12:49.599Z,19.50
2019-04-03T08:15:18.807Z,19.90
2019-04-03T08:17:49.580Z,19.90
2019-04-03T08:20:20.124Z,19.90
2019-04-03T08:22:49.375Z,20.20
2019-04-03T08:25:18.498Z,20.60
2019-04-03T08:27:47.593Z,21.20
2019-04-03T08:30:16.929Z,20.60
2019-04-03T08:32:48.520Z,20.90
2019-04-03T08:35:22.388Z,20.90
2019-04-03T08:37:47.853Z,21.20
2019-04-03T08:40:20.023Z,21.00
2019-04-03T08:42:47.770Z,20.60
2019-04-03T08:45:17.003Z,21.10
2019-04-03T08:47:46.847Z,21.10
2019-04-03T08:53:21.141Z,20.60
2019-04-03T08:55:50.102Z,21.90
2019-04-03T08:58:21.314Z,22.70
2019-04-03T09:00:50.728Z,22.90
2019-04-03T09:03:19.726Z,22.60
2019-04-03T09:05:50.967Z,23.10
2019-04-03T09:08:19.694Z,23.00
2019-04-03T09:10:48.917Z,22.80
2019-04-03T09:13:22.091Z,22.40
2019-04-03T09:15:49.133Z,22.30
2019-04-03T09:18:18.414Z,21.80
2019-04-03T09:20:47.471Z,20.80
2019-04-03T09:23:17.030Z,20.90
2019-04-03T09:25:46.109Z,20.80
2019-04-03T09:28:15.146Z,21.30
2019-04-03T09:30:46.883Z,21.50
2019-04-03T09:33:14.998Z,20.70
2019-04-03T09:35:44.171Z,20.80
2019-04-03T09:38:13.250Z,21.40
2019-04-03T09:40:42.331Z,21.20
2019-04-03T09:43:11.598Z,20.90
2019-04-03T09:45:40.696Z,21.40
2019-04-03T09:48:11.624Z,22.30
2019-04-03T09:50:41.140Z,23.10
2019-04-03T09:53:10.290Z,22.00
2019-04-03T09:55:39.295Z,20.80
2019-04-03T09:58:08.373Z,21.00
2019-04-03T10:00:37.526Z,21.80
2019-04-03T10:03:06.726Z,22.70
2019-04-03T10:05:35.991Z,21.60
2019-04-03T10:08:07.572Z,20.70
2019-04-03T10:10:35.961Z,21.10
2019-04-03T10:13:05.306Z,23.10
2019-04-03T10:15:34.571Z,23.90
2019-04-03T10:18:04.121Z,25.10
2019-04-03T10:20:33.547Z,26.30
2019-04-03T10:23:02.563Z,26.20
2019-04-03T10:25:31.739Z,25.50
2019-04-03T10:28:01.041Z,25.20
2019-04-03T10:30:30.707Z,24.80
2019-04-03T10:33:00.404Z,25.30
2019-04-03T10:35:30.186Z,26.30
2019-04-03T10:37:59.083Z,27.00
2019-04-03T10:40:28.478Z,26.60
2019-04-03T10:43:00.063Z,26.30
2019-04-03T10:45:28.864Z,26.50
2019-04-03T10:47:58.267Z,27.00
2019-04-03T10:50:27.513Z,27.20
2019-04-03T10:52:57.513Z,27.10
2019-04-03T10:55:28.417Z,27.10
2019-04-03T10:57:57.517Z,27.10
2019-04-03T11:00:28.877Z,27.40
2019-04-03T11:02:57.413Z,27.50
2019-04-03T11:05:26.423Z,27.40
2019-04-03T11:07:55.453Z,27.00
2019-04-03T11:10:25.273Z,28.00
2019-04-03T11:12:54.718Z,28.00
2019-04-03T11:15:23.762Z,28.30
2019-04-03T11:17:52.738Z,28.80
2019-04-03T11:20:21.914Z,29.20
2019-04-03T11:23:04.108Z,29.40
2019-04-03T11:25:21.792Z,27.60
2019-04-03T11:27:50.921Z,27.20
2019-04-03T11:30:54.599Z,28.00
2019-04-03T11:32:51.017Z,28.20
2019-04-03T11:35:22.292Z,27.80
2019-04-03T11:37:51.761Z,27.80
2019-04-03T11:40:24.093Z,27.70
2019-04-03T11:42:52.264Z,27.50
2019-04-03T11:45:21.539Z,27.20
2019-04-03T11:47:50.575Z,27.00
2019-04-03T11:50:20.242Z,28.00
2019-04-03T11:52:51.378Z,26.30
2019-04-03T11:55:20.122Z,25.20
2019-04-03T11:57:49.604Z,24.90
2019-04-03T12:00:30.913Z,23.70
2019-04-03T12:03:00.205Z,24.20
2019-04-03T12:05:29.303Z,25.50
2019-04-03T12:07:58.456Z,26.10
2019-04-03T12:10:27.498Z,26.10
2019-04-03T12:12:56.517Z,25.60
2019-04-03T12:15:26.008Z,24.90
2019-04-03T12:17:55.529Z,24.60
2019-04-03T12:20:24.639Z,25.30
2019-04-03T12:22:54.594Z,26.80
2019-04-03T12:25:24.181Z,26.90
2019-04-03T12:27:53.628Z,27.90
2019-04-03T12:30:23.053Z,29.10
2019-04-03T12:32:52.415Z,28.90
2019-04-03T12:35:21.781Z,28.50
2019-04-03T12:37:51.246Z,28.80
2019-04-03T12:40:20.575Z,28.70
2019-04-03T12:42:50.044Z,28.50
2019-04-03T12:45:19.458Z,28.40
2019-04-03T12:47:48.891Z,27.80
2019-04-03T12:50:18.630Z,28.00
2019-04-03T12:52:47.607Z,28.30
2019-04-03T12:55:16.623Z,27.40
2019-04-03T12:57:45.676Z,26.90
2019-04-03T13:00:16.182Z,26.50
2019-04-03T13:02:45.300Z,25.40
2019-04-03T13:05:16.365Z,24.90
2019-04-03T13:07:46.853Z,25.90
2019-04-03T13:10:16.975Z,26.00
2019-04-03T13:12:46.154Z,24.50
2019-04-03T13:15:15.691Z,23.40
2019-04-03T13:17:44.996Z,24.70
2019-04-03T13:20:15.621Z,25.40
2019-04-03T13:22:45.007Z,25.50
2019-04-03T13:25:14.487Z,24.90
2019-04-03T13:27:44.082Z,24.80
2019-04-03T13:30:15.492Z,24.70
2019-04-03T13:32:56.737Z,24.00
2019-04-03T13:35:16.756Z,24.00
2019-04-03T13:37:46.464Z,23.50
2019-04-03T13:40:16.927Z,23.20
2019-04-03T13:42:48.867Z,23.20
2019-04-03T13:45:17.150Z,23.30
2019-04-03T13:47:46.960Z,23.20
2019-04-03T13:50:17.291Z,23.30
2019-04-03T13:52:49.232Z,23.00
2019-04-03T13:55:17.608Z,22.60
2019-04-03T13:57:49.133Z,22.40
2019-04-03T14:00:22.757Z,22.70
2019-04-03T14:02:49.410Z,22.70
2019-04-03T14:05:18.713Z,22.40
2019-04-03T14:07:48.215Z,22.00
2019-04-03T14:10:17.567Z,21.80
2019-04-03T14:12:46.739Z,21.60
2019-04-03T14:15:17.643Z,21.50
2019-04-03T14:17:55.321Z,21.50
2019-04-03T14:20:18.813Z,21.20
2019-04-03T14:22:48.128Z,21.20
2019-04-03T14:25:20.561Z,21.10
2019-04-03T14:27:47.922Z,21.00
2019-04-03T14:30:17.042Z,21.00
2019-04-03T14:32:46.504Z,20.60
2019-04-03T14:35:44.359Z,20.50
2019-04-03T14:37:46.626Z,20.40
2019-04-03T14:40:15.773Z,20.50
2019-04-03T14:42:44.808Z,20.50
2019-04-03T14:45:15.239Z,20.20
2019-04-03T14:47:45.356Z,20.10
2019-04-03T14:50:14.726Z,19.70
2019-04-03T14:52:44.132Z,19.50
2019-04-03T14:55:19.459Z,19.30
2019-04-03T14:57:44.560Z,19.30
2019-04-03T15:00:26.905Z,19.30
2019-04-03T15:02:45.482Z,19.20
2019-04-03T15:05:14.632Z,19.10
2019-04-03T15:07:43.739Z,19.00
2019-04-03T15:10:13.274Z,19.00
2019-04-03T15:12:42.319Z,18.90
2019-04-03T15:15:11.971Z,18.80
2019-04-03T15:17:41.523Z,18.80
2019-04-03T15:20:11.565Z,18.80
2019-04-03T15:22:40.682Z,18.70
2019-04-03T15:25:09.723Z,18.60
2019-04-03T15:27:39.158Z,18.40
2019-04-03T15:30:10.833Z,18.40
2019-04-03T15:32:40.193Z,18.40
2019-04-03T15:35:10.278Z,18.30
2019-04-03T15:37:41.938Z,18.30
2019-04-03T15:40:11.481Z,18.10
2019-04-03T15:42:41.876Z,18.10
2019-04-03T15:45:11.668Z,18.00
2019-04-03T15:47:45.027Z,18.00
2019-04-03T15:50:11.997Z,17.80
2019-04-03T15:52:43.545Z,17.80
2019-04-03T15:55:12.166Z,17.70
2019-04-03T15:57:41.447Z,17.60
2019-04-03T16:00:12.449Z,17.60
2019-04-03T16:02:44.470Z,17.60
2019-04-03T16:05:13.388Z,17.60
2019-04-03T16:07:42.830Z,17.50
2019-04-03T16:10:12.175Z,17.50
2019-04-03T16:12:43.156Z,17.50
2019-04-03T16:15:13.945Z,17.40
2019-04-03T16:17:43.164Z,17.40
2019-04-03T16:20:17.496Z,17.40
2019-04-03T16:22:45.876Z,17.40
2019-04-03T16:25:16.729Z,17.30
2019-04-03T16:27:46.609Z,17.30
2019-04-03T16:30:18.705Z,17.30
2019-04-03T16:32:47.673Z,18.10
2019-04-03T16:35:17.418Z,17.20
2019-04-03T16:37:46.518Z,17.20
2019-04-03T16:40:15.971Z,17.10
2019-04-03T16:42:47.468Z,17.10
2019-04-03T16:45:15.995Z,17.10
2019-04-03T16:47:45.792Z,17.00
2019-04-03T16:50:15.337Z,17.00
2019-04-03T16:52:46.834Z,16.90
2019-04-03T16:55:15.907Z,16.90
2019-04-03T16:57:46.077Z,16.80
2019-04-03T17:00:15.581Z,16.80
2019-04-03T17:02:44.916Z,16.80
2019-04-03T17:05:14.453Z,16.70
2019-04-03T17:07:43.367Z,16.80
2019-04-03T17:10:14.028Z,16.70
2019-04-03T17:12:45.290Z,16.60
2019-04-03T17:15:14.336Z,16.60
2019-04-03T17:17:46.205Z,16.50
2019-04-03T17:20:14.261Z,16.50
2019-04-03T17:22:45.096Z,16.40
2019-04-03T17:25:14.358Z,16.40
2019-04-03T17:27:54.535Z,16.30
2019-04-03T17:30:16.267Z,16.30
2019-04-03T17:32:46.119Z,16.30
2019-04-03T17:35:16.267Z,16.20
2019-04-03T17:37:46.023Z,16.10
2019-04-03T17:40:15.478Z,16.10
2019-04-03T17:42:44.506Z,16.10
2019-04-03T17:45:15.506Z,16.00
2019-04-03T17:47:44.322Z,16.00
2019-04-03T17:50:13.638Z,16.00
2019-04-03T17:52:42.775Z,15.80
2019-04-03T17:55:12.031Z,15.80
2019-04-03T17:57:41.107Z,15.80
2019-04-03T18:00:13.782Z,15.80
2019-04-03T18:02:42.887Z,15.70
2019-04-03T18:05:12.570Z,15.70
2019-04-03T18:07:41.637Z,15.70
2019-04-03T18:10:12.709Z,15.60
2019-04-03T18:12:41.554Z,15.60
2019-04-03T18:15:11.541Z,15.60
2019-04-03T18:17:40.450Z,15.60
2019-04-03T18:20:12.594Z,15.50
2019-04-03T18:22:41.325Z,15.50
2019-04-03T18:25:10.714Z,15.50
2019-04-03T18:27:39.723Z,15.40
2019-04-03T18:30:11.863Z,15.40
2019-04-03T18:32:41.448Z,15.30
2019-04-03T18:35:11.008Z,15.20
2019-04-03T18:37:41.162Z,15.20
2019-04-03T18:40:13.984Z,15.20
2019-04-03T18:42:41.675Z,15.20
2019-04-03T18:45:24.142Z,15.10
2019-04-03T18:47:43.912Z,15.00
2019-04-03T18:50:13.286Z,15.00
2019-04-03T18:52:42.325Z,15.00
2019-04-03T18:55:14.659Z,14.90
2019-04-03T18:57:42.959Z,15.00
2019-04-03T19:00:13.152Z,15.00
2019-04-03T19:02:42.938Z,14.90
2019-04-03T19:05:14.257Z,14.80
2019-04-03T19:07:45.885Z,14.80
2019-04-03T19:10:13.937Z,14.70
2019-04-03T19:12:43.667Z,14.70
2019-04-03T19:15:13.375Z,14.70
2019-04-03T19:17:42.556Z,14.60
2019-04-03T19:20:12.317Z,14.60
2019-04-03T19:22:41.440Z,14.50
2019-04-03T19:25:10.928Z,14.50
2019-04-03T19:27:40.611Z,14.50
2019-04-03T19:30:10.177Z,14.40
2019-04-03T19:32:39.293Z,14.40
2019-04-03T19:35:09.801Z,14.40
2019-04-03T19:37:39.108Z,14.40
2019-04-03T19:40:09.776Z,14.40
2019-04-03T19:42:39.891Z,14.30
2019-04-03T19:45:09.328Z,14.20
2019-04-03T19:47:38.613Z,14.20
2019-04-03T19:50:09.511Z,14.30
2019-04-03T19:52:41.637Z,14.20
2019-04-03T19:55:10.050Z,14.20
2019-04-03T19:57:39.075Z,14.30
2019-04-03T20:00:09.085Z,14.20
2019-04-03T20:02:40.463Z,14.10
2019-04-03T20:05:09.221Z,14.10
2019-04-03T20:07:38.283Z,14.00
2019-04-03T20:10:08.606Z,14.00
2019-04-03T20:12:38.355Z,13.80
2019-04-03T20:15:08.109Z,13.50
2019-04-03T20:17:37.140Z,12.90
2019-04-03T20:20:06.687Z,12.00
2019-04-03T20:22:37.376Z,11.40
2019-04-03T20:25:06.898Z,11.00
2019-04-03T20:27:36.870Z,10.60
2019-04-03T20:30:07.445Z,10.40
2019-04-03T20:32:40.047Z,10.20
2019-04-03T20:35:07.806Z,10.10
2019-04-03T20:37:36.868Z,9.90
2019-04-03T20:40:06.338Z,9.90
2019-04-03T20:42:35.404Z,9.60
2019-04-03T20:45:05.577Z,9.40
2019-04-03T20:47:35.506Z,9.20
2019-04-03T20:50:06.972Z,9.10
2019-04-03T20:52:36.099Z,9.00
2019-04-03T20:55:05.621Z,8.80
2019-04-03T20:57:34.765Z,8.70
2019-04-03T21:00:08.959Z,8.60
2019-04-03T21:02:41.247Z,8.50
2019-04-03T21:05:17.638Z,8.50
2019-04-03T21:07:47.068Z,8.30
2019-04-03T21:10:18.086Z,8.20
2019-04-03T21:12:47.873Z,8.00
2019-04-03T21:15:17.958Z,8.00
2019-04-03T21:17:49.822Z,7.90
2019-04-03T21:20:19.005Z,7.90
2019-04-03T21:22:47.968Z,7.90
2019-04-03T21:25:16.964Z,7.80
2019-04-03T21:27:46.155Z,7.80
2019-04-03T21:30:15.237Z,7.80
2019-04-03T21:32:44.269Z,7.80
2019-04-03T21:35:13.402Z,7.80
2019-04-03T21:37:42.460Z,7.70
2019-04-03T21:40:13.005Z,7.70
2019-04-03T21:42:42.303Z,7.70
2019-04-03T21:45:11.387Z,7.70
2019-04-03T21:47:40.873Z,7.60
2019-04-03T21:50:11.469Z,7.70
2019-04-03T21:52:40.503Z,7.70
2019-04-03T21:55:09.805Z,7.60
2019-04-03T21:57:38.747Z,7.60
2019-04-03T22:00:09.033Z,7.60
2019-04-03T22:02:38.435Z,7.70
2019-04-03T22:05:08.224Z,7.60
2019-04-03T22:07:37.591Z,7.60
2019-04-03T22:10:08.845Z,7.60
2019-04-03T22:12:37.650Z,7.50
2019-04-03T22:15:07.576Z,7.50
2019-04-03T22:17:36.642Z,7.50
2019-04-03T22:20:06.257Z,7.50
2019-04-03T22:22:35.275Z,7.60
2019-04-03T22:25:04.563Z,7.50
2019-04-03T22:27:33.595Z,7.40
2019-04-03T22:30:02.520Z,7.40
